Terminal Aerodrome Forecast
Issued by NWS

Home | Current Version | Previous Version | Text Only | Print | Product List | Glossary On
Versions: 1 2 3 4 5 6 7 8 9 10 11 12 13
000
FTUS45 KABQ 142300 RRA
TAFFMN
TAF
KFMN 142342Z 1500/1524 VRB06KT P6SM SCT100
     FM150200 VRB04KT P6SM SCT120
     FM150500 08006KT P6SM SCT150
     FM152030 22008KT P6SM SCT100 SCT200=

USA.gov is the U.S. government's official web portal to all federal, state and local government web resources and services.